sensor_id;sensor_type;location;lat;lon;timestamp;P1;durP1;ratioP1;P2;durP2;ratioP2
5539;SDS011;2792;52.452;9.752;2023-02-20T00:01:48;16.03;;;7.67;;
5539;SDS011;2792;52.452;9.752;2023-02-20T00:04:16;10.47;;;6.87;;
5539;SDS011;2792;52.452;9.752;2023-02-20T00:06:43;10.73;;;6.50;;
5539;SDS011;2792;52.452;9.752;2023-02-20T00:09:10;8.00;;;6.17;;
5539;SDS011;2792;52.452;9.752;2023-02-20T00:11:36;11.13;;;6.70;;
5539;SDS011;2792;52.452;9.752;2023-02-20T00:14:03;8.10;;;5.80;;
5539;SDS011;2792;52.452;9.752;2023-02-20T00:16:30;8.03;;;6.00;;
5539;SDS011;2792;52.452;9.752;2023-02-20T00:18:57;6.43;;;5.77;;
5539;SDS011;2792;52.452;9.752;2023-02-20T00:21:24;8.70;;;6.10;;
5539;SDS011;2792;52.452;9.752;2023-02-20T00:23:50;7.10;;;5.80;;
5539;SDS011;2792;52.452;9.752;2023-02-20T00:26:17;8.43;;;5.33;;
5539;SDS011;2792;52.452;9.752;2023-02-20T00:28:43;5.80;;;4.93;;
5539;SDS011;2792;52.452;9.752;2023-02-20T00:31:11;6.33;;;4.80;;
5539;SDS011;2792;52.452;9.752;2023-02-20T00:33:39;7.00;;;5.63;;
5539;SDS011;2792;52.452;9.752;2023-02-20T00:36:07;10.83;;;6.43;;
5539;SDS011;2792;52.452;9.752;2023-02-20T00:38:40;9.23;;;5.23;;
5539;SDS011;2792;52.452;9.752;2023-02-20T00:41:07;6.97;;;5.07;;
5539;SDS011;2792;52.452;9.752;2023-02-20T00:43:35;7.97;;;4.90;;
5539;SDS011;2792;52.452;9.752;2023-02-20T00:46:03;7.50;;;5.07;;
5539;SDS011;2792;52.452;9.752;2023-02-20T00:48:29;6.23;;;4.73;;
5539;SDS011;2792;52.452;9.752;2023-02-20T00:50:56;5.97;;;4.77;;
5539;SDS011;2792;52.452;9.752;2023-02-20T00:53:24;9.07;;;6.17;;
5539;SDS011;2792;52.452;9.752;2023-02-20T00:55:50;5.20;;;4.57;;
5539;SDS011;2792;52.452;9.752;2023-02-20T00:58:17;8.70;;;5.17;;
5539;SDS011;2792;52.452;9.752;2023-02-20T01:00:43;7.87;;;6.03;;
5539;SDS011;2792;52.452;9.752;2023-02-20T01:03:10;5.80;;;4.87;;
5539;SDS011;2792;52.452;9.752;2023-02-20T01:05:42;7.63;;;5.67;;
5539;SDS011;2792;52.452;9.752;2023-02-20T01:08:08;6.57;;;5.40;;
5539;SDS011;2792;52.452;9.752;2023-02-20T01:10:36;7.03;;;5.60;;
5539;SDS011;2792;52.452;9.752;2023-02-20T01:13:03;8.13;;;6.00;;
5539;SDS011;2792;52.452;9.752;2023-02-20T01:15:29;6.87;;;5.50;;
5539;SDS011;2792;52.452;9.752;2023-02-20T01:17:56;7.43;;;5.70;;
5539;SDS011;2792;52.452;9.752;2023-02-20T01:20:23;8.63;;;5.73;;
5539;SDS011;2792;52.452;9.752;2023-02-20T01:22:49;8.90;;;6.10;;
5539;SDS011;2792;52.452;9.752;2023-02-20T01:25:16;9.00;;;6.70;;
5539;SDS011;2792;52.452;9.752;2023-02-20T01:27:44;7.70;;;5.40;;
5539;SDS011;2792;52.452;9.752;2023-02-20T01:30:10;7.60;;;6.13;;
5539;SDS011;2792;52.452;9.752;2023-02-20T01:32:37;8.07;;;6.60;;
5539;SDS011;2792;52.452;9.752;2023-02-20T01:35:04;6.20;;;5.60;;
5539;SDS011;2792;52.452;9.752;2023-02-20T01:37:31;7.53;;;5.57;;
5539;SDS011;2792;52.452;9.752;2023-02-20T01:39:57;5.63;;;4.80;;
5539;SDS011;2792;52.452;9.752;2023-02-20T01:42:24;8.10;;;5.47;;
5539;SDS011;2792;52.452;9.752;2023-02-20T01:47:44;5.77;;;4.83;;
5539;SDS011;2792;52.452;9.752;2023-02-20T01:50:11;6.70;;;6.00;;
5539;SDS011;2792;52.452;9.752;2023-02-20T01:52:38;6.60;;;4.93;;
5539;SDS011;2792;52.452;9.752;2023-02-20T01:55:05;7.40;;;5.30;;
5539;SDS011;2792;52.452;9.752;2023-02-20T01:57:34;5.97;;;4.80;;
5539;SDS011;2792;52.452;9.752;2023-02-20T02:00:04;5.40;;;4.87;;
5539;SDS011;2792;52.452;9.752;2023-02-20T02:02:36;6.27;;;5.10;;
5539;SDS011;2792;52.452;9.752;2023-02-20T02:05:04;7.43;;;5.23;;
5539;SDS011;2792;52.452;9.752;2023-02-20T02:07:33;6.93;;;5.33;;
5539;SDS011;2792;52.452;9.752;2023-02-20T02:10:01;5.53;;;4.93;;
5539;SDS011;2792;52.452;9.752;2023-02-20T02:12:30;7.47;;;5.80;;
5539;SDS011;2792;52.452;9.752;2023-02-20T02:14:56;8.73;;;4.80;;
5539;SDS011;2792;52.452;9.752;2023-02-20T02:20:25;6.10;;;4.83;;
5539;SDS011;2792;52.452;9.752;2023-02-20T02:29:32;6.00;;;5.40;;
5539;SDS011;2792;52.452;9.752;2023-02-20T02:38:15;6.80;;;5.53;;
5539;SDS011;2792;52.452;9.752;2023-02-20T02:40:45;7.83;;;6.03;;
5539;SDS011;2792;52.452;9.752;2023-02-20T02:43:17;8.40;;;6.10;;
5539;SDS011;2792;52.452;9.752;2023-02-20T02:45:48;6.80;;;6.10;;
5539;SDS011;2792;52.452;9.752;2023-02-20T02:48:19;8.70;;;6.40;;
5539;SDS011;2792;52.452;9.752;2023-02-20T02:50:49;7.23;;;6.00;;
5539;SDS011;2792;52.452;9.752;2023-02-20T02:53:19;7.17;;;6.30;;
5539;SDS011;2792;52.452;9.752;2023-02-20T02:55:46;6.83;;;6.13;;
5539;SDS011;2792;52.452;9.752;2023-02-20T02:58:12;7.90;;;5.77;;
5539;SDS011;2792;52.452;9.752;2023-02-20T03:00:41;22.93;;;5.93;;
5539;SDS011;2792;52.452;9.752;2023-02-20T03:03:10;9.00;;;7.10;;
5539;SDS011;2792;52.452;9.752;2023-02-20T03:05:42;9.53;;;7.30;;
5539;SDS011;2792;52.452;9.752;2023-02-20T03:08:16;8.50;;;7.10;;
5539;SDS011;2792;52.452;9.752;2023-02-20T03:10:54;7.50;;;6.60;;
5539;SDS011;2792;52.452;9.752;2023-02-20T03:13:21;8.60;;;6.70;;
5539;SDS011;2792;52.452;9.752;2023-02-20T03:16:07;10.10;;;7.50;;
5539;SDS011;2792;52.452;9.752;2023-02-20T03:18:35;12.80;;;6.20;;
5539;SDS011;2792;52.452;9.752;2023-02-20T03:21:05;7.33;;;6.33;;
5539;SDS011;2792;52.452;9.752;2023-02-20T03:23:37;8.93;;;6.73;;
5539;SDS011;2792;52.452;9.752;2023-02-20T03:26:07;8.93;;;6.50;;
5539;SDS011;2792;52.452;9.752;2023-02-20T03:28:43;8.40;;;6.53;;
5539;SDS011;2792;52.452;9.752;2023-02-20T03:31:13;8.80;;;6.70;;
5539;SDS011;2792;52.452;9.752;2023-02-20T03:33:42;8.90;;;7.00;;
5539;SDS011;2792;52.452;9.752;2023-02-20T03:36:30;7.47;;;6.13;;
5539;SDS011;2792;52.452;9.752;2023-02-20T03:39:17;8.37;;;5.87;;
5539;SDS011;2792;52.452;9.752;2023-02-20T03:42:04;11.43;;;6.97;;
5539;SDS011;2792;52.452;9.752;2023-02-20T03:44:49;8.77;;;6.67;;
5539;SDS011;2792;52.452;9.752;2023-02-20T03:47:17;8.10;;;6.97;;
5539;SDS011;2792;52.452;9.752;2023-02-20T03:49:43;8.13;;;6.83;;
5539;SDS011;2792;52.452;9.752;2023-02-20T03:52:11;11.53;;;7.27;;
5539;SDS011;2792;52.452;9.752;2023-02-20T03:54:39;11.77;;;7.53;;
5539;SDS011;2792;52.452;9.752;2023-02-20T03:57:07;10.47;;;7.10;;
5539;SDS011;2792;52.452;9.752;2023-02-20T03:59:36;9.67;;;7.17;;
5539;SDS011;2792;52.452;9.752;2023-02-20T04:02:06;9.77;;;7.33;;
5539;SDS011;2792;52.452;9.752;2023-02-20T04:04:35;10.40;;;7.40;;
5539;SDS011;2792;52.452;9.752;2023-02-20T04:07:05;10.77;;;7.50;;
5539;SDS011;2792;52.452;9.752;2023-02-20T04:09:35;9.87;;;8.00;;
5539;SDS011;2792;52.452;9.752;2023-02-20T04:12:09;9.70;;;7.90;;
5539;SDS011;2792;52.452;9.752;2023-02-20T04:14:37;12.00;;;8.80;;
5539;SDS011;2792;52.452;9.752;2023-02-20T04:17:05;14.20;;;9.10;;
5539;SDS011;2792;52.452;9.752;2023-02-20T04:19:36;18.37;;;9.77;;
5539;SDS011;2792;52.452;9.752;2023-02-20T04:22:03;12.60;;;9.80;;
5539;SDS011;2792;52.452;9.752;2023-02-20T04:24:33;16.10;;;9.60;;
5539;SDS011;2792;52.452;9.752;2023-02-20T04:27:03;15.93;;;10.53;;
5539;SDS011;2792;52.452;9.752;2023-02-20T04:29:29;13.67;;;9.57;;
5539;SDS011;2792;52.452;9.752;2023-02-20T04:31:56;15.83;;;10.50;;
5539;SDS011;2792;52.452;9.752;2023-02-20T04:34:23;15.00;;;9.50;;
5539;SDS011;2792;52.452;9.752;2023-02-20T04:36:49;13.73;;;10.10;;
5539;SDS011;2792;52.452;9.752;2023-02-20T04:39:17;15.53;;;10.30;;
5539;SDS011;2792;52.452;9.752;2023-02-20T04:41:46;15.83;;;10.03;;
5539;SDS011;2792;52.452;9.752;2023-02-20T04:44:14;14.17;;;9.77;;
5539;SDS011;2792;52.452;9.752;2023-02-20T04:47:07;15.10;;;10.03;;
5539;SDS011;2792;52.452;9.752;2023-02-20T04:49:36;17.40;;;10.60;;
5539;SDS011;2792;52.452;9.752;2023-02-20T04:52:02;18.13;;;10.33;;
5539;SDS011;2792;52.452;9.752;2023-02-20T04:54:29;15.10;;;9.50;;
5539;SDS011;2792;52.452;9.752;2023-02-20T04:56:56;15.63;;;9.63;;
5539;SDS011;2792;52.452;9.752;2023-02-20T04:59:24;13.33;;;10.37;;
5539;SDS011;2792;52.452;9.752;2023-02-20T05:01:50;15.97;;;10.67;;
5539;SDS011;2792;52.452;9.752;2023-02-20T05:04:19;20.80;;;10.27;;
5539;SDS011;2792;52.452;9.752;2023-02-20T05:06:46;15.53;;;11.00;;
5539;SDS011;2792;52.452;9.752;2023-02-20T05:09:13;16.50;;;10.57;;
5539;SDS011;2792;52.452;9.752;2023-02-20T05:11:40;19.27;;;11.30;;
5539;SDS011;2792;52.452;9.752;2023-02-20T05:14:06;13.70;;;10.10;;
5539;SDS011;2792;52.452;9.752;2023-02-20T05:16:35;13.87;;;9.43;;
5539;SDS011;2792;52.452;9.752;2023-02-20T05:19:02;14.17;;;9.13;;
5539;SDS011;2792;52.452;9.752;2023-02-20T05:21:28;12.40;;;8.97;;
5539;SDS011;2792;52.452;9.752;2023-02-20T05:24:13;13.23;;;9.13;;
5539;SDS011;2792;52.452;9.752;2023-02-20T05:26:39;15.67;;;9.67;;
5539;SDS011;2792;52.452;9.752;2023-02-20T05:29:06;13.67;;;8.57;;
5539;SDS011;2792;52.452;9.752;2023-02-20T05:31:35;14.40;;;8.80;;
5539;SDS011;2792;52.452;9.752;2023-02-20T05:34:01;14.03;;;9.57;;
5539;SDS011;2792;52.452;9.752;2023-02-20T05:36:28;13.37;;;9.63;;
5539;SDS011;2792;52.452;9.752;2023-02-20T05:38:55;13.60;;;9.27;;
5539;SDS011;2792;52.452;9.752;2023-02-20T05:41:21;13.87;;;8.90;;
5539;SDS011;2792;52.452;9.752;2023-02-20T05:43:48;11.00;;;9.10;;
5539;SDS011;2792;52.452;9.752;2023-02-20T05:46:15;12.77;;;9.30;;
5539;SDS011;2792;52.452;9.752;2023-02-20T05:48:47;17.40;;;8.73;;
5539;SDS011;2792;52.452;9.752;2023-02-20T05:51:18;12.67;;;8.40;;
5539;SDS011;2792;52.452;9.752;2023-02-20T05:53:45;14.50;;;8.30;;
5539;SDS011;2792;52.452;9.752;2023-02-20T05:56:11;13.23;;;8.10;;
5539;SDS011;2792;52.452;9.752;2023-02-20T05:58:38;12.90;;;9.23;;
5539;SDS011;2792;52.452;9.752;2023-02-20T06:01:07;10.73;;;7.90;;
5539;SDS011;2792;52.452;9.752;2023-02-20T06:03:33;10.87;;;8.03;;
5539;SDS011;2792;52.452;9.752;2023-02-20T06:06:01;16.03;;;9.30;;
5539;SDS011;2792;52.452;9.752;2023-02-20T06:08:27;13.63;;;8.47;;
5539;SDS011;2792;52.452;9.752;2023-02-20T06:10:54;11.53;;;8.00;;
5539;SDS011;2792;52.452;9.752;2023-02-20T06:13:20;9.73;;;7.03;;
5539;SDS011;2792;52.452;9.752;2023-02-20T06:15:47;11.40;;;7.40;;
5539;SDS011;2792;52.452;9.752;2023-02-20T06:18:13;10.37;;;6.60;;
5539;SDS011;2792;52.452;9.752;2023-02-20T06:20:40;9.03;;;6.30;;
5539;SDS011;2792;52.452;9.752;2023-02-20T06:23:08;13.13;;;7.47;;
5539;SDS011;2792;52.452;9.752;2023-02-20T06:25:34;9.20;;;6.07;;
5539;SDS011;2792;52.452;9.752;2023-02-20T06:28:01;11.80;;;6.77;;
5539;SDS011;2792;52.452;9.752;2023-02-20T06:30:27;11.63;;;6.63;;
5539;SDS011;2792;52.452;9.752;2023-02-20T06:32:54;11.00;;;6.30;;
5539;SDS011;2792;52.452;9.752;2023-02-20T06:35:20;11.10;;;5.50;;
5539;SDS011;2792;52.452;9.752;2023-02-20T06:37:47;12.77;;;6.30;;
5539;SDS011;2792;52.452;9.752;2023-02-20T06:40:15;10.10;;;6.37;;
5539;SDS011;2792;52.452;9.752;2023-02-20T06:42:41;11.03;;;6.40;;
5539;SDS011;2792;52.452;9.752;2023-02-20T06:45:08;15.07;;;5.90;;
5539;SDS011;2792;52.452;9.752;2023-02-20T06:47:35;12.10;;;6.90;;
5539;SDS011;2792;52.452;9.752;2023-02-20T06:50:02;9.83;;;6.13;;
5539;SDS011;2792;52.452;9.752;2023-02-20T06:52:29;10.07;;;6.43;;
5539;SDS011;2792;52.452;9.752;2023-02-20T06:54:56;11.27;;;6.20;;
5539;SDS011;2792;52.452;9.752;2023-02-20T06:57:24;9.83;;;6.20;;
5539;SDS011;2792;52.452;9.752;2023-02-20T06:59:51;12.00;;;7.20;;
5539;SDS011;2792;52.452;9.752;2023-02-20T07:02:17;11.37;;;6.13;;
5539;SDS011;2792;52.452;9.752;2023-02-20T07:04:46;9.27;;;6.30;;
5539;SDS011;2792;52.452;9.752;2023-02-20T07:07:13;12.67;;;6.40;;
5539;SDS011;2792;52.452;9.752;2023-02-20T07:09:39;14.33;;;6.80;;
5539;SDS011;2792;52.452;9.752;2023-02-20T07:12:06;12.43;;;7.70;;
5539;SDS011;2792;52.452;9.752;2023-02-20T07:14:34;12.37;;;7.33;;
5539;SDS011;2792;52.452;9.752;2023-02-20T07:17:00;12.33;;;7.87;;
5539;SDS011;2792;52.452;9.752;2023-02-20T07:19:27;16.13;;;7.90;;
5539;SDS011;2792;52.452;9.752;2023-02-20T07:21:53;9.93;;;6.23;;
5539;SDS011;2792;52.452;9.752;2023-02-20T07:24:20;12.20;;;8.00;;
5539;SDS011;2792;52.452;9.752;2023-02-20T07:26:47;16.03;;;8.40;;
5539;SDS011;2792;52.452;9.752;2023-02-20T07:29:13;13.47;;;8.03;;
5539;SDS011;2792;52.452;9.752;2023-02-20T07:31:41;13.67;;;8.53;;
5539;SDS011;2792;52.452;9.752;2023-02-20T07:34:08;13.07;;;8.80;;
5539;SDS011;2792;52.452;9.752;2023-02-20T07:36:34;11.80;;;8.33;;
5539;SDS011;2792;52.452;9.752;2023-02-20T07:39:01;14.40;;;8.40;;
5539;SDS011;2792;52.452;9.752;2023-02-20T07:41:30;19.40;;;11.20;;
5539;SDS011;2792;52.452;9.752;2023-02-20T07:44:00;15.67;;;9.80;;
5539;SDS011;2792;52.452;9.752;2023-02-20T07:46:26;16.70;;;9.70;;
5539;SDS011;2792;52.452;9.752;2023-02-20T07:48:59;15.30;;;11.27;;
5539;SDS011;2792;52.452;9.752;2023-02-20T07:51:25;18.20;;;10.63;;
5539;SDS011;2792;52.452;9.752;2023-02-20T07:53:52;16.27;;;11.97;;
5539;SDS011;2792;52.452;9.752;2023-02-20T07:56:19;17.70;;;11.33;;
5539;SDS011;2792;52.452;9.752;2023-02-20T07:58:47;18.57;;;12.53;;
5539;SDS011;2792;52.452;9.752;2023-02-20T08:01:13;15.93;;;11.17;;
5539;SDS011;2792;52.452;9.752;2023-02-20T08:03:40;19.20;;;12.23;;
5539;SDS011;2792;52.452;9.752;2023-02-20T08:06:08;18.20;;;13.13;;
5539;SDS011;2792;52.452;9.752;2023-02-20T08:08:34;20.47;;;14.13;;
5539;SDS011;2792;52.452;9.752;2023-02-20T08:11:01;17.37;;;12.73;;
5539;SDS011;2792;52.452;9.752;2023-02-20T08:13:28;21.03;;;13.80;;
5539;SDS011;2792;52.452;9.752;2023-02-20T08:15:55;21.77;;;13.70;;
5539;SDS011;2792;52.452;9.752;2023-02-20T08:18:22;22.93;;;13.90;;
5539;SDS011;2792;52.452;9.752;2023-02-20T08:20:49;19.33;;;13.93;;
5539;SDS011;2792;52.452;9.752;2023-02-20T08:23:18;19.20;;;13.83;;
5539;SDS011;2792;52.452;9.752;2023-02-20T08:25:46;26.37;;;15.00;;
5539;SDS011;2792;52.452;9.752;2023-02-20T08:28:13;21.70;;;15.03;;
5539;SDS011;2792;52.452;9.752;2023-02-20T08:30:39;23.73;;;14.30;;
5539;SDS011;2792;52.452;9.752;2023-02-20T08:33:06;20.70;;;14.43;;
5539;SDS011;2792;52.452;9.752;2023-02-20T08:35:32;22.50;;;15.17;;
5539;SDS011;2792;52.452;9.752;2023-02-20T08:37:59;23.00;;;15.13;;
5539;SDS011;2792;52.452;9.752;2023-02-20T08:40:27;22.07;;;15.20;;
5539;SDS011;2792;52.452;9.752;2023-02-20T08:42:54;19.70;;;14.30;;
5539;SDS011;2792;52.452;9.752;2023-02-20T08:45:20;21.63;;;14.83;;
5539;SDS011;2792;52.452;9.752;2023-02-20T08:47:47;21.07;;;15.70;;
5539;SDS011;2792;52.452;9.752;2023-02-20T08:50:15;25.70;;;16.37;;
5539;SDS011;2792;52.452;9.752;2023-02-20T08:52:42;24.57;;;16.33;;
5539;SDS011;2792;52.452;9.752;2023-02-20T08:55:10;24.73;;;16.00;;
5539;SDS011;2792;52.452;9.752;2023-02-20T08:57:38;23.73;;;14.93;;
5539;SDS011;2792;52.452;9.752;2023-02-20T09:00:08;20.90;;;16.17;;
5539;SDS011;2792;52.452;9.752;2023-02-20T09:02:36;22.60;;;15.07;;
5539;SDS011;2792;52.452;9.752;2023-02-20T09:05:02;20.53;;;13.00;;
5539;SDS011;2792;52.452;9.752;2023-02-20T09:07:29;21.33;;;14.60;;
5539;SDS011;2792;52.452;9.752;2023-02-20T09:09:55;20.63;;;14.27;;
5539;SDS011;2792;52.452;9.752;2023-02-20T09:12:22;21.17;;;13.97;;
5539;SDS011;2792;52.452;9.752;2023-02-20T09:14:50;24.53;;;14.37;;
5539;SDS011;2792;52.452;9.752;2023-02-20T09:17:16;25.93;;;14.30;;
5539;SDS011;2792;52.452;9.752;2023-02-20T09:19:43;19.77;;;13.87;;
5539;SDS011;2792;52.452;9.752;2023-02-20T09:22:09;24.17;;;15.40;;
5539;SDS011;2792;52.452;9.752;2023-02-20T09:24:36;20.70;;;13.03;;
5539;SDS011;2792;52.452;9.752;2023-02-20T09:27:02;25.07;;;13.60;;
5539;SDS011;2792;52.452;9.752;2023-02-20T09:29:30;21.33;;;13.23;;
5539;SDS011;2792;52.452;9.752;2023-02-20T09:31:58;18.73;;;13.33;;
5539;SDS011;2792;52.452;9.752;2023-02-20T09:34:25;16.50;;;12.57;;
5539;SDS011;2792;52.452;9.752;2023-02-20T09:36:51;23.67;;;13.50;;
5539;SDS011;2792;52.452;9.752;2023-02-20T09:39:18;29.10;;;13.20;;
5539;SDS011;2792;52.452;9.752;2023-02-20T09:42:00;20.33;;;13.53;;
5539;SDS011;2792;52.452;9.752;2023-02-20T09:44:36;18.30;;;12.70;;
5539;SDS011;2792;52.452;9.752;2023-02-20T09:47:11;20.10;;;12.43;;
5539;SDS011;2792;52.452;9.752;2023-02-20T09:49:50;16.83;;;12.60;;
5539;SDS011;2792;52.452;9.752;2023-02-20T09:52:17;18.83;;;13.17;;
5539;SDS011;2792;52.452;9.752;2023-02-20T09:54:45;16.87;;;11.97;;
5539;SDS011;2792;52.452;9.752;2023-02-20T09:57:15;23.80;;;13.20;;
5539;SDS011;2792;52.452;9.752;2023-02-20T09:59:44;18.23;;;11.27;;
5539;SDS011;2792;52.452;9.752;2023-02-20T10:02:16;19.27;;;12.00;;
5539;SDS011;2792;52.452;9.752;2023-02-20T10:04:44;20.30;;;12.10;;
5539;SDS011;2792;52.452;9.752;2023-02-20T10:07:15;17.67;;;12.30;;
5539;SDS011;2792;52.452;9.752;2023-02-20T10:09:45;19.70;;;12.60;;
5539;SDS011;2792;52.452;9.752;2023-02-20T10:12:14;22.90;;;13.30;;
5539;SDS011;2792;52.452;9.752;2023-02-20T10:14:47;21.50;;;12.60;;
5539;SDS011;2792;52.452;9.752;2023-02-20T10:17:25;19.37;;;13.03;;
5539;SDS011;2792;52.452;9.752;2023-02-20T10:19:58;25.30;;;13.00;;
5539;SDS011;2792;52.452;9.752;2023-02-20T10:22:29;18.43;;;12.70;;
5539;SDS011;2792;52.452;9.752;2023-02-20T10:25:07;19.00;;;13.07;;
5539;SDS011;2792;52.452;9.752;2023-02-20T10:27:38;18.33;;;12.70;;
5539;SDS011;2792;52.452;9.752;2023-02-20T10:30:11;22.30;;;14.17;;
5539;SDS011;2792;52.452;9.752;2023-02-20T10:32:41;20.20;;;13.27;;
5539;SDS011;2792;52.452;9.752;2023-02-20T10:35:11;22.63;;;14.63;;
5539;SDS011;2792;52.452;9.752;2023-02-20T10:37:39;22.07;;;13.37;;
5539;SDS011;2792;52.452;9.752;2023-02-20T10:40:11;23.33;;;13.87;;
5539;SDS011;2792;52.452;9.752;2023-02-20T10:42:40;19.57;;;13.40;;
5539;SDS011;2792;52.452;9.752;2023-02-20T10:45:13;22.97;;;13.03;;
5539;SDS011;2792;52.452;9.752;2023-02-20T10:47:46;23.23;;;14.40;;
5539;SDS011;2792;52.452;9.752;2023-02-20T10:50:15;23.10;;;13.13;;
5539;SDS011;2792;52.452;9.752;2023-02-20T10:52:46;26.70;;;14.00;;
5539;SDS011;2792;52.452;9.752;2023-02-20T10:55:16;25.50;;;14.43;;
5539;SDS011;2792;52.452;9.752;2023-02-20T10:57:46;24.73;;;14.87;;
5539;SDS011;2792;52.452;9.752;2023-02-20T11:00:15;23.97;;;13.47;;
5539;SDS011;2792;52.452;9.752;2023-02-20T11:02:44;25.90;;;14.60;;
5539;SDS011;2792;52.452;9.752;2023-02-20T11:05:22;26.03;;;16.37;;
5539;SDS011;2792;52.452;9.752;2023-02-20T11:07:48;29.63;;;14.77;;
5539;SDS011;2792;52.452;9.752;2023-02-20T11:10:15;27.83;;;15.37;;
5539;SDS011;2792;52.452;9.752;2023-02-20T11:12:43;24.20;;;13.83;;
5539;SDS011;2792;52.452;9.752;2023-02-20T11:15:14;27.90;;;14.87;;
5539;SDS011;2792;52.452;9.752;2023-02-20T11:17:42;25.87;;;16.10;;
5539;SDS011;2792;52.452;9.752;2023-02-20T11:23:10;27.67;;;14.90;;
5539;SDS011;2792;52.452;9.752;2023-02-20T11:26:10;34.70;;;16.10;;
5539;SDS011;2792;52.452;9.752;2023-02-20T11:28:44;25.60;;;15.47;;
5539;SDS011;2792;52.452;9.752;2023-02-20T11:31:11;26.30;;;15.80;;
5539;SDS011;2792;52.452;9.752;2023-02-20T11:33:41;23.87;;;15.13;;
5539;SDS011;2792;52.452;9.752;2023-02-20T11:36:13;23.53;;;14.80;;
5539;SDS011;2792;52.452;9.752;2023-02-20T11:38:41;23.70;;;14.20;;
5539;SDS011;2792;52.452;9.752;2023-02-20T11:41:22;28.13;;;15.30;;
5539;SDS011;2792;52.452;9.752;2023-02-20T11:46:42;28.03;;;15.90;;
5539;SDS011;2792;52.452;9.752;2023-02-20T11:49:11;26.40;;;15.30;;
5539;SDS011;2792;52.452;9.752;2023-02-20T11:51:49;26.17;;;14.90;;
5539;SDS011;2792;52.452;9.752;2023-02-20T11:54:16;33.50;;;15.30;;
5539;SDS011;2792;52.452;9.752;2023-02-20T11:56:55;27.30;;;15.20;;
5539;SDS011;2792;52.452;9.752;2023-02-20T11:59:26;28.03;;;15.37;;
5539;SDS011;2792;52.452;9.752;2023-02-20T12:04:59;30.40;;;16.63;;
5539;SDS011;2792;52.452;9.752;2023-02-20T12:07:32;26.17;;;15.70;;
5539;SDS011;2792;52.452;9.752;2023-02-20T12:10:02;30.83;;;16.70;;
5539;SDS011;2792;52.452;9.752;2023-02-20T12:12:37;29.53;;;16.77;;
5539;SDS011;2792;52.452;9.752;2023-02-20T12:15:04;29.30;;;16.07;;
5539;SDS011;2792;52.452;9.752;2023-02-20T12:17:37;28.80;;;16.50;;
5539;SDS011;2792;52.452;9.752;2023-02-20T12:20:13;35.17;;;16.20;;
5539;SDS011;2792;52.452;9.752;2023-02-20T12:22:44;26.33;;;15.77;;
5539;SDS011;2792;52.452;9.752;2023-02-20T12:25:18;29.83;;;16.80;;
5539;SDS011;2792;52.452;9.752;2023-02-20T12:27:51;30.70;;;17.13;;
5539;SDS011;2792;52.452;9.752;2023-02-20T12:30:28;27.10;;;17.07;;
5539;SDS011;2792;52.452;9.752;2023-02-20T12:33:06;33.90;;;16.97;;
5539;SDS011;2792;52.452;9.752;2023-02-20T12:35:44;33.97;;;16.10;;
5539;SDS011;2792;52.452;9.752;2023-02-20T12:38:25;27.00;;;15.87;;
5539;SDS011;2792;52.452;9.752;2023-02-20T12:41:05;27.03;;;15.90;;
5539;SDS011;2792;52.452;9.752;2023-02-20T12:43:39;31.53;;;17.40;;
5539;SDS011;2792;52.452;9.752;2023-02-20T12:46:12;30.20;;;16.30;;
5539;SDS011;2792;52.452;9.752;2023-02-20T12:48:46;29.33;;;15.37;;
5539;SDS011;2792;52.452;9.752;2023-02-20T12:51:24;30.47;;;15.37;;
5539;SDS011;2792;52.452;9.752;2023-02-20T12:54:00;32.93;;;17.00;;
5539;SDS011;2792;52.452;9.752;2023-02-20T12:56:36;30.17;;;16.20;;
5539;SDS011;2792;52.452;9.752;2023-02-20T12:59:12;25.90;;;15.00;;
5539;SDS011;2792;52.452;9.752;2023-02-20T13:01:51;29.00;;;14.20;;
5539;SDS011;2792;52.452;9.752;2023-02-20T13:04:21;29.43;;;16.37;;
5539;SDS011;2792;52.452;9.752;2023-02-20T13:06:51;32.90;;;17.27;;
5539;SDS011;2792;52.452;9.752;2023-02-20T13:09:23;29.63;;;15.20;;
5539;SDS011;2792;52.452;9.752;2023-02-20T13:11:53;27.47;;;14.93;;
5539;SDS011;2792;52.452;9.752;2023-02-20T13:14:27;34.10;;;15.93;;
5539;SDS011;2792;52.452;9.752;2023-02-20T13:17:02;29.87;;;16.30;;
5539;SDS011;2792;52.452;9.752;2023-02-20T13:19:34;28.13;;;15.57;;
5539;SDS011;2792;52.452;9.752;2023-02-20T13:22:03;26.20;;;14.67;;
5539;SDS011;2792;52.452;9.752;2023-02-20T13:24:33;24.03;;;14.47;;
5539;SDS011;2792;52.452;9.752;2023-02-20T13:27:01;30.10;;;14.10;;
5539;SDS011;2792;52.452;9.752;2023-02-20T13:29:31;28.87;;;14.50;;
5539;SDS011;2792;52.452;9.752;2023-02-20T13:31:59;28.23;;;15.13;;
5539;SDS011;2792;52.452;9.752;2023-02-20T13:34:37;23.70;;;14.40;;
5539;SDS011;2792;52.452;9.752;2023-02-20T13:37:04;25.87;;;12.87;;
5539;SDS011;2792;52.452;9.752;2023-02-20T13:48:49;23.70;;;13.03;;
5539;SDS011;2792;52.452;9.752;2023-02-20T13:51:27;22.60;;;13.13;;
5539;SDS011;2792;52.452;9.752;2023-02-20T13:53:56;26.27;;;13.67;;
5539;SDS011;2792;52.452;9.752;2023-02-20T13:56:27;25.80;;;13.10;;
5539;SDS011;2792;52.452;9.752;2023-02-20T13:58:56;25.77;;;13.00;;
5539;SDS011;2792;52.452;9.752;2023-02-20T14:01:24;25.80;;;13.50;;
5539;SDS011;2792;52.452;9.752;2023-02-20T14:03:58;25.00;;;12.93;;
5539;SDS011;2792;52.452;9.752;2023-02-20T14:06:25;27.73;;;14.23;;
5539;SDS011;2792;52.452;9.752;2023-02-20T14:09:05;24.50;;;12.20;;
5539;SDS011;2792;52.452;9.752;2023-02-20T14:11:35;25.57;;;13.20;;
5539;SDS011;2792;52.452;9.752;2023-02-20T14:14:06;24.27;;;12.90;;
5539;SDS011;2792;52.452;9.752;2023-02-20T14:16:34;26.47;;;12.90;;
5539;SDS011;2792;52.452;9.752;2023-02-20T14:19:04;23.37;;;12.70;;
5539;SDS011;2792;52.452;9.752;2023-02-20T14:21:33;30.00;;;13.30;;
5539;SDS011;2792;52.452;9.752;2023-02-20T14:24:09;24.13;;;13.13;;
5539;SDS011;2792;52.452;9.752;2023-02-20T14:26:40;24.10;;;13.07;;
5539;SDS011;2792;52.452;9.752;2023-02-20T14:29:18;23.70;;;11.00;;
5539;SDS011;2792;52.452;9.752;2023-02-20T14:31:46;25.30;;;12.33;;
5539;SDS011;2792;52.452;9.752;2023-02-20T14:34:16;23.50;;;12.03;;
5539;SDS011;2792;52.452;9.752;2023-02-20T14:36:53;25.37;;;12.40;;
5539;SDS011;2792;52.452;9.752;2023-02-20T14:39:29;22.13;;;11.73;;
5539;SDS011;2792;52.452;9.752;2023-02-20T14:42:02;29.83;;;13.63;;
5539;SDS011;2792;52.452;9.752;2023-02-20T14:44:30;23.73;;;11.17;;
5539;SDS011;2792;52.452;9.752;2023-02-20T14:46:59;23.17;;;11.10;;
5539;SDS011;2792;52.452;9.752;2023-02-20T14:49:29;21.50;;;10.70;;
5539;SDS011;2792;52.452;9.752;2023-02-20T14:52:17;23.00;;;10.87;;
5539;SDS011;2792;52.452;9.752;2023-02-20T14:54:55;19.63;;;11.13;;
5539;SDS011;2792;52.452;9.752;2023-02-20T14:57:25;25.73;;;11.93;;
5539;SDS011;2792;52.452;9.752;2023-02-20T15:00:05;22.37;;;12.20;;
5539;SDS011;2792;52.452;9.752;2023-02-20T15:02:34;19.17;;;10.90;;
5539;SDS011;2792;52.452;9.752;2023-02-20T15:05:01;21.63;;;11.93;;
5539;SDS011;2792;52.452;9.752;2023-02-20T15:07:29;22.00;;;11.23;;
5539;SDS011;2792;52.452;9.752;2023-02-20T15:09:57;25.80;;;11.40;;
5539;SDS011;2792;52.452;9.752;2023-02-20T15:12:28;20.23;;;10.87;;
5539;SDS011;2792;52.452;9.752;2023-02-20T15:14:57;21.10;;;11.20;;
5539;SDS011;2792;52.452;9.752;2023-02-20T15:17:26;22.90;;;11.90;;
5539;SDS011;2792;52.452;9.752;2023-02-20T15:19:53;25.57;;;11.83;;
5539;SDS011;2792;52.452;9.752;2023-02-20T15:22:22;28.33;;;11.63;;
5539;SDS011;2792;52.452;9.752;2023-02-20T15:24:53;24.07;;;12.20;;
5539;SDS011;2792;52.452;9.752;2023-02-20T15:27:20;25.03;;;12.47;;
5539;SDS011;2792;52.452;9.752;2023-02-20T15:32:35;26.77;;;12.63;;
5539;SDS011;2792;52.452;9.752;2023-02-20T15:35:03;20.53;;;11.90;;
5539;SDS011;2792;52.452;9.752;2023-02-20T15:37:30;25.93;;;12.33;;
5539;SDS011;2792;52.452;9.752;2023-02-20T15:40:05;30.70;;;14.87;;
5539;SDS011;2792;52.452;9.752;2023-02-20T15:42:32;27.70;;;13.77;;
5539;SDS011;2792;52.452;9.752;2023-02-20T15:44:59;28.93;;;13.40;;
5539;SDS011;2792;52.452;9.752;2023-02-20T15:47:27;26.17;;;12.23;;
5539;SDS011;2792;52.452;9.752;2023-02-20T15:49:53;23.87;;;12.57;;
5539;SDS011;2792;52.452;9.752;2023-02-20T15:52:20;26.03;;;12.33;;